sensor_id;sensor_type;location;lat;lon;timestamp;P1;durP1;ratioP1;P2;durP2;ratioP2
25155;SDS011;21913;52.456;13.634;2022-12-16T00:01:23;18.73;;;11.73;;
25155;SDS011;21913;52.456;13.634;2022-12-16T00:06:26;18.38;;;11.05;;
25155;SDS011;21913;52.456;13.634;2022-12-16T00:11:31;17.52;;;11.18;;
25155;SDS011;21913;52.456;13.634;2022-12-16T00:16:32;22.48;;;10.82;;
25155;SDS011;21913;52.456;13.634;2022-12-16T00:21:34;21.15;;;11.43;;
25155;SDS011;21913;52.456;13.634;2022-12-16T00:26:35;16.85;;;10.77;;
25155;SDS011;21913;52.456;13.634;2022-12-16T00:31:38;18.23;;;10.90;;
25155;SDS011;21913;52.456;13.634;2022-12-16T00:36:40;18.58;;;10.52;;
25155;SDS011;21913;52.456;13.634;2022-12-16T00:41:41;21.35;;;11.18;;
25155;SDS011;21913;52.456;13.634;2022-12-16T00:46:43;18.38;;;10.68;;
25155;SDS011;21913;52.456;13.634;2022-12-16T00:51:44;17.55;;;10.43;;
25155;SDS011;21913;52.456;13.634;2022-12-16T00:56:46;16.92;;;9.93;;
25155;SDS011;21913;52.456;13.634;2022-12-16T01:01:47;17.67;;;10.95;;
25155;SDS011;21913;52.456;13.634;2022-12-16T01:06:49;16.48;;;10.02;;
25155;SDS011;21913;52.456;13.634;2022-12-16T01:11:50;16.63;;;9.52;;
25155;SDS011;21913;52.456;13.634;2022-12-16T01:16:52;17.35;;;9.70;;
25155;SDS011;21913;52.456;13.634;2022-12-16T01:21:53;17.48;;;9.90;;
25155;SDS011;21913;52.456;13.634;2022-12-16T01:26:55;16.75;;;9.55;;
25155;SDS011;21913;52.456;13.634;2022-12-16T01:31:56;16.67;;;9.73;;
25155;SDS011;21913;52.456;13.634;2022-12-16T01:36:57;19.52;;;10.18;;
25155;SDS011;21913;52.456;13.634;2022-12-16T01:41:59;16.08;;;9.23;;
25155;SDS011;21913;52.456;13.634;2022-12-16T01:47:01;15.20;;;9.10;;
25155;SDS011;21913;52.456;13.634;2022-12-16T01:52:06;16.30;;;9.23;;
25155;SDS011;21913;52.456;13.634;2022-12-16T01:57:11;15.98;;;8.77;;
25155;SDS011;21913;52.456;13.634;2022-12-16T02:02:15;16.77;;;9.77;;
25155;SDS011;21913;52.456;13.634;2022-12-16T02:07:17;13.27;;;8.52;;
25155;SDS011;21913;52.456;13.634;2022-12-16T02:12:38;15.30;;;9.32;;
25155;SDS011;21913;52.456;13.634;2022-12-16T02:18:03;16.63;;;9.00;;
25155;SDS011;21913;52.456;13.634;2022-12-16T02:23:25;14.32;;;9.15;;
25155;SDS011;21913;52.456;13.634;2022-12-16T02:34:09;14.10;;;8.52;;
25155;SDS011;21913;52.456;13.634;2022-12-16T02:39:21;14.07;;;8.60;;
25155;SDS011;21913;52.456;13.634;2022-12-16T02:49:56;13.98;;;8.85;;
25155;SDS011;21913;52.456;13.634;2022-12-16T02:54:58;14.07;;;8.32;;
25155;SDS011;21913;52.456;13.634;2022-12-16T03:00:06;13.75;;;8.73;;
25155;SDS011;21913;52.456;13.634;2022-12-16T03:05:15;13.90;;;8.50;;
25155;SDS011;21913;52.456;13.634;2022-12-16T03:10:23;14.18;;;8.32;;
25155;SDS011;21913;52.456;13.634;2022-12-16T03:15:30;16.15;;;8.75;;
25155;SDS011;21913;52.456;13.634;2022-12-16T03:20:35;14.02;;;8.02;;
25155;SDS011;21913;52.456;13.634;2022-12-16T03:25:44;13.98;;;8.15;;
25155;SDS011;21913;52.456;13.634;2022-12-16T03:30:50;13.65;;;7.75;;
25155;SDS011;21913;52.456;13.634;2022-12-16T03:36:04;16.15;;;7.75;;
25155;SDS011;21913;52.456;13.634;2022-12-16T03:41:16;13.93;;;8.23;;
25155;SDS011;21913;52.456;13.634;2022-12-16T03:46:20;15.80;;;8.10;;
25155;SDS011;21913;52.456;13.634;2022-12-16T03:51:21;14.75;;;8.32;;
25155;SDS011;21913;52.456;13.634;2022-12-16T03:56:23;16.02;;;8.00;;
25155;SDS011;21913;52.456;13.634;2022-12-16T04:01:24;14.55;;;8.40;;
25155;SDS011;21913;52.456;13.634;2022-12-16T04:06:26;13.43;;;7.55;;
25155;SDS011;21913;52.456;13.634;2022-12-16T04:11:27;13.25;;;7.88;;
25155;SDS011;21913;52.456;13.634;2022-12-16T04:16:29;15.68;;;7.88;;
25155;SDS011;21913;52.456;13.634;2022-12-16T04:21:31;13.73;;;8.45;;
25155;SDS011;21913;52.456;13.634;2022-12-16T04:26:32;12.57;;;7.82;;
25155;SDS011;21913;52.456;13.634;2022-12-16T04:31:34;15.73;;;7.75;;
25155;SDS011;21913;52.456;13.634;2022-12-16T04:36:35;12.70;;;7.97;;
25155;SDS011;21913;52.456;13.634;2022-12-16T04:41:37;12.05;;;7.63;;
25155;SDS011;21913;52.456;13.634;2022-12-16T04:46:38;11.80;;;8.00;;
25155;SDS011;21913;52.456;13.634;2022-12-16T04:51:40;14.95;;;8.07;;
25155;SDS011;21913;52.456;13.634;2022-12-16T04:56:41;12.73;;;7.60;;
25155;SDS011;21913;52.456;13.634;2022-12-16T05:01:43;12.43;;;7.90;;
25155;SDS011;21913;52.456;13.634;2022-12-16T05:06:44;11.85;;;7.53;;
25155;SDS011;21913;52.456;13.634;2022-12-16T05:11:46;15.23;;;7.82;;
25155;SDS011;21913;52.456;13.634;2022-12-16T05:16:48;13.63;;;7.38;;
25155;SDS011;21913;52.456;13.634;2022-12-16T05:21:49;13.60;;;8.20;;
25155;SDS011;21913;52.456;13.634;2022-12-16T05:26:51;13.18;;;7.60;;
25155;SDS011;21913;52.456;13.634;2022-12-16T05:31:52;13.90;;;7.75;;
25155;SDS011;21913;52.456;13.634;2022-12-16T05:36:54;12.55;;;7.20;;
25155;SDS011;21913;52.456;13.634;2022-12-16T05:41:55;12.48;;;7.82;;
25155;SDS011;21913;52.456;13.634;2022-12-16T05:46:57;12.60;;;8.00;;
25155;SDS011;21913;52.456;13.634;2022-12-16T05:51:58;13.50;;;7.70;;
25155;SDS011;21913;52.456;13.634;2022-12-16T05:57:00;15.70;;;8.30;;
25155;SDS011;21913;52.456;13.634;2022-12-16T06:02:01;13.40;;;7.82;;
25155;SDS011;21913;52.456;13.634;2022-12-16T06:07:03;14.77;;;8.00;;
25155;SDS011;21913;52.456;13.634;2022-12-16T06:12:05;12.80;;;7.80;;
25155;SDS011;21913;52.456;13.634;2022-12-16T06:17:06;14.27;;;8.13;;
25155;SDS011;21913;52.456;13.634;2022-12-16T06:22:08;14.10;;;7.60;;
25155;SDS011;21913;52.456;13.634;2022-12-16T06:27:09;16.35;;;8.63;;
25155;SDS011;21913;52.456;13.634;2022-12-16T06:32:11;12.68;;;7.75;;
25155;SDS011;21913;52.456;13.634;2022-12-16T06:37:12;14.15;;;8.40;;
25155;SDS011;21913;52.456;13.634;2022-12-16T06:42:14;13.10;;;7.97;;
25155;SDS011;21913;52.456;13.634;2022-12-16T06:47:15;16.20;;;9.23;;
25155;SDS011;21913;52.456;13.634;2022-12-16T06:52:16;14.63;;;7.80;;
25155;SDS011;21913;52.456;13.634;2022-12-16T06:57:18;14.10;;;8.35;;
25155;SDS011;21913;52.456;13.634;2022-12-16T07:02:19;13.02;;;7.97;;
25155;SDS011;21913;52.456;13.634;2022-12-16T07:07:21;14.27;;;8.43;;
25155;SDS011;21913;52.456;13.634;2022-12-16T07:12:22;14.05;;;7.93;;
25155;SDS011;21913;52.456;13.634;2022-12-16T07:17:24;14.27;;;8.45;;
25155;SDS011;21913;52.456;13.634;2022-12-16T07:22:25;16.42;;;8.48;;
25155;SDS011;21913;52.456;13.634;2022-12-16T07:27:27;16.15;;;8.80;;
25155;SDS011;21913;52.456;13.634;2022-12-16T07:32:28;15.00;;;8.68;;
25155;SDS011;21913;52.456;13.634;2022-12-16T07:37:30;16.10;;;9.10;;
25155;SDS011;21913;52.456;13.634;2022-12-16T07:42:31;13.00;;;8.50;;
25155;SDS011;21913;52.456;13.634;2022-12-16T07:47:33;15.48;;;8.98;;
25155;SDS011;21913;52.456;13.634;2022-12-16T07:52:34;15.63;;;9.25;;
25155;SDS011;21913;52.456;13.634;2022-12-16T07:57:36;15.05;;;8.52;;
25155;SDS011;21913;52.456;13.634;2022-12-16T08:02:37;14.73;;;8.85;;
25155;SDS011;21913;52.456;13.634;2022-12-16T08:07:39;15.18;;;9.02;;
25155;SDS011;21913;52.456;13.634;2022-12-16T08:12:44;15.88;;;9.25;;
25155;SDS011;21913;52.456;13.634;2022-12-16T08:17:49;18.05;;;9.25;;
25155;SDS011;21913;52.456;13.634;2022-12-16T08:22:52;14.25;;;8.88;;
25155;SDS011;21913;52.456;13.634;2022-12-16T08:27:54;17.17;;;9.85;;
25155;SDS011;21913;52.456;13.634;2022-12-16T08:32:56;16.65;;;9.00;;
25155;SDS011;21913;52.456;13.634;2022-12-16T08:38:00;14.10;;;8.60;;
25155;SDS011;21913;52.456;13.634;2022-12-16T08:43:01;20.63;;;11.80;;
25155;SDS011;21913;52.456;13.634;2022-12-16T08:48:07;19.65;;;11.73;;
25155;SDS011;21913;52.456;13.634;2022-12-16T08:53:09;21.52;;;11.98;;
25155;SDS011;21913;52.456;13.634;2022-12-16T08:58:10;17.83;;;11.07;;
25155;SDS011;21913;52.456;13.634;2022-12-16T09:03:12;20.52;;;11.32;;
25155;SDS011;21913;52.456;13.634;2022-12-16T09:08:13;16.67;;;10.95;;
25155;SDS011;21913;52.456;13.634;2022-12-16T09:13:15;20.00;;;10.88;;
25155;SDS011;21913;52.456;13.634;2022-12-16T09:18:16;20.63;;;10.65;;
25155;SDS011;21913;52.456;13.634;2022-12-16T09:23:18;19.67;;;10.77;;
25155;SDS011;21913;52.456;13.634;2022-12-16T09:28:19;18.42;;;10.27;;
25155;SDS011;21913;52.456;13.634;2022-12-16T09:33:21;17.85;;;10.52;;
25155;SDS011;21913;52.456;13.634;2022-12-16T09:38:22;16.30;;;10.45;;
25155;SDS011;21913;52.456;13.634;2022-12-16T09:48:48;18.15;;;10.80;;
25155;SDS011;21913;52.456;13.634;2022-12-16T09:53:57;16.02;;;10.35;;
25155;SDS011;21913;52.456;13.634;2022-12-16T09:59:05;18.85;;;10.10;;
25155;SDS011;21913;52.456;13.634;2022-12-16T10:04:12;17.45;;;9.77;;
25155;SDS011;21913;52.456;13.634;2022-12-16T10:14:59;17.50;;;9.73;;
25155;SDS011;21913;52.456;13.634;2022-12-16T10:20:15;20.00;;;10.50;;
25155;SDS011;21913;52.456;13.634;2022-12-16T10:25:22;15.65;;;9.10;;
25155;SDS011;21913;52.456;13.634;2022-12-16T10:30:27;16.27;;;9.27;;
25155;SDS011;21913;52.456;13.634;2022-12-16T10:35:31;15.38;;;9.23;;
25155;SDS011;21913;52.456;13.634;2022-12-16T10:40:36;15.93;;;9.40;;
25155;SDS011;21913;52.456;13.634;2022-12-16T10:45:41;17.15;;;9.13;;
25155;SDS011;21913;52.456;13.634;2022-12-16T10:50:46;17.15;;;8.88;;
25155;SDS011;21913;52.456;13.634;2022-12-16T10:56:01;14.80;;;8.82;;
25155;SDS011;21913;52.456;13.634;2022-12-16T11:01:23;14.52;;;9.10;;
25155;SDS011;21913;52.456;13.634;2022-12-16T11:06:27;15.18;;;9.40;;
25155;SDS011;21913;52.456;13.634;2022-12-16T11:11:39;15.00;;;8.63;;
25155;SDS011;21913;52.456;13.634;2022-12-16T11:16:41;14.27;;;8.73;;
25155;SDS011;21913;52.456;13.634;2022-12-16T11:21:42;17.27;;;9.48;;
25155;SDS011;21913;52.456;13.634;2022-12-16T11:26:54;14.95;;;9.35;;
25155;SDS011;21913;52.456;13.634;2022-12-16T11:37:06;14.60;;;8.90;;
25155;SDS011;21913;52.456;13.634;2022-12-16T11:42:15;14.75;;;8.40;;
25155;SDS011;21913;52.456;13.634;2022-12-16T11:52:25;13.65;;;8.48;;
25155;SDS011;21913;52.456;13.634;2022-12-16T11:57:51;13.13;;;8.48;;
25155;SDS011;21913;52.456;13.634;2022-12-16T12:03:04;14.43;;;8.57;;
25155;SDS011;21913;52.456;13.634;2022-12-16T12:13:48;16.60;;;8.60;;
25155;SDS011;21913;52.456;13.634;2022-12-16T12:50:41;12.38;;;7.97;;
25155;SDS011;21913;52.456;13.634;2022-12-16T13:01:25;12.70;;;7.93;;
25155;SDS011;21913;52.456;13.634;2022-12-16T13:06:30;13.73;;;8.50;;
25155;SDS011;21913;52.456;13.634;2022-12-16T13:11:32;12.35;;;7.68;;
25155;SDS011;21913;52.456;13.634;2022-12-16T13:16:59;15.38;;;7.68;;
25155;SDS011;21913;52.456;13.634;2022-12-16T13:21:57;12.50;;;7.53;;
25155;SDS011;21913;52.456;13.634;2022-12-16T13:26:59;13.52;;;8.07;;
25155;SDS011;21913;52.456;13.634;2022-12-16T13:32:03;12.50;;;7.82;;
25155;SDS011;21913;52.456;13.634;2022-12-16T13:37:25;13.32;;;7.80;;
25155;SDS011;21913;52.456;13.634;2022-12-16T13:57:42;11.55;;;7.53;;
25155;SDS011;21913;52.456;13.634;2022-12-16T14:02:46;12.80;;;7.53;;
25155;SDS011;21913;52.456;13.634;2022-12-16T14:07:52;14.40;;;7.35;;
25155;SDS011;21913;52.456;13.634;2022-12-16T14:13:08;12.00;;;7.78;;
25155;SDS011;21913;52.456;13.634;2022-12-16T14:23:37;12.68;;;7.80;;
25155;SDS011;21913;52.456;13.634;2022-12-16T14:28:59;13.10;;;7.57;;
25155;SDS011;21913;52.456;13.634;2022-12-16T14:34:03;12.32;;;7.85;;
25155;SDS011;21913;52.456;13.634;2022-12-16T14:39:08;10.05;;;7.03;;
25155;SDS011;21913;52.456;13.634;2022-12-16T14:44:18;10.13;;;6.87;;
25155;SDS011;21913;52.456;13.634;2022-12-16T14:49:26;12.30;;;7.40;;
25155;SDS011;21913;52.456;13.634;2022-12-16T14:59:33;16.45;;;9.35;;
25155;SDS011;21913;52.456;13.634;2022-12-16T15:04:35;14.27;;;9.20;;
25155;SDS011;21913;52.456;13.634;2022-12-16T15:09:38;15.68;;;9.30;;
25155;SDS011;21913;52.456;13.634;2022-12-16T15:14:44;15.40;;;8.95;;
25155;SDS011;21913;52.456;13.634;2022-12-16T15:19:48;15.38;;;9.05;;
25155;SDS011;21913;52.456;13.634;2022-12-16T15:24:52;14.98;;;8.60;;
25155;SDS011;21913;52.456;13.634;2022-12-16T15:29:53;15.68;;;9.07;;
25155;SDS011;21913;52.456;13.634;2022-12-16T15:34:55;14.65;;;8.40;;
25155;SDS011;21913;52.456;13.634;2022-12-16T15:39:56;13.98;;;8.57;;
25155;SDS011;21913;52.456;13.634;2022-12-16T15:44:58;17.98;;;8.73;;
25155;SDS011;21913;52.456;13.634;2022-12-16T15:50:01;17.45;;;9.00;;
25155;SDS011;21913;52.456;13.634;2022-12-16T15:55:20;14.45;;;8.27;;
25155;SDS011;21913;52.456;13.634;2022-12-16T16:05:28;13.65;;;8.43;;
25155;SDS011;21913;52.456;13.634;2022-12-16T16:10:30;14.63;;;8.27;;
25155;SDS011;21913;52.456;13.634;2022-12-16T16:15:32;12.93;;;8.65;;
25155;SDS011;21913;52.456;13.634;2022-12-16T16:20:33;13.23;;;8.23;;
25155;SDS011;21913;52.456;13.634;2022-12-16T16:25:35;12.93;;;8.18;;
25155;SDS011;21913;52.456;13.634;2022-12-16T16:30:36;13.20;;;8.48;;
25155;SDS011;21913;52.456;13.634;2022-12-16T16:35:38;15.13;;;8.45;;
25155;SDS011;21913;52.456;13.634;2022-12-16T16:40:40;16.98;;;9.25;;
25155;SDS011;21913;52.456;13.634;2022-12-16T16:45:42;18.02;;;8.80;;
25155;SDS011;21913;52.456;13.634;2022-12-16T16:50:44;14.38;;;9.45;;
25155;SDS011;21913;52.456;13.634;2022-12-16T16:55:46;16.60;;;9.15;;
25155;SDS011;21913;52.456;13.634;2022-12-16T17:00:53;23.15;;;12.80;;
25155;SDS011;21913;52.456;13.634;2022-12-16T17:05:54;36.58;;;20.88;;
25155;SDS011;21913;52.456;13.634;2022-12-16T17:10:56;35.75;;;21.33;;
25155;SDS011;21913;52.456;13.634;2022-12-16T17:15:57;34.20;;;20.10;;
25155;SDS011;21913;52.456;13.634;2022-12-16T17:20:59;31.60;;;19.48;;
25155;SDS011;21913;52.456;13.634;2022-12-16T17:26:00;40.47;;;21.25;;
25155;SDS011;21913;52.456;13.634;2022-12-16T17:31:02;40.67;;;23.95;;
25155;SDS011;21913;52.456;13.634;2022-12-16T17:36:03;47.33;;;26.00;;
25155;SDS011;21913;52.456;13.634;2022-12-16T17:41:06;42.28;;;25.70;;
25155;SDS011;21913;52.456;13.634;2022-12-16T17:46:09;43.53;;;24.77;;
25155;SDS011;21913;52.456;13.634;2022-12-16T17:51:11;41.25;;;23.75;;
25155;SDS011;21913;52.456;13.634;2022-12-16T17:56:13;47.53;;;24.75;;
25155;SDS011;21913;52.456;13.634;2022-12-16T18:01:14;39.67;;;23.63;;
25155;SDS011;21913;52.456;13.634;2022-12-16T18:06:16;42.65;;;23.38;;
25155;SDS011;21913;52.456;13.634;2022-12-16T18:11:18;38.47;;;23.48;;
25155;SDS011;21913;52.456;13.634;2022-12-16T18:16:19;44.30;;;23.48;;
25155;SDS011;21913;52.456;13.634;2022-12-16T18:21:20;41.78;;;23.08;;
25155;SDS011;21913;52.456;13.634;2022-12-16T18:26:22;37.20;;;21.92;;
25155;SDS011;21913;52.456;13.634;2022-12-16T18:31:23;42.40;;;23.83;;
25155;SDS011;21913;52.456;13.634;2022-12-16T18:36:25;38.75;;;22.33;;
25155;SDS011;21913;52.456;13.634;2022-12-16T18:41:26;39.08;;;23.42;;
25155;SDS011;21913;52.456;13.634;2022-12-16T18:46:28;42.78;;;23.35;;
25155;SDS011;21913;52.456;13.634;2022-12-16T18:51:30;41.03;;;23.08;;
25155;SDS011;21913;52.456;13.634;2022-12-16T18:56:31;41.38;;;21.92;;
25155;SDS011;21913;52.456;13.634;2022-12-16T19:01:32;40.90;;;22.40;;
25155;SDS011;21913;52.456;13.634;2022-12-16T19:06:34;43.70;;;23.80;;
25155;SDS011;21913;52.456;13.634;2022-12-16T19:11:35;40.80;;;23.27;;
25155;SDS011;21913;52.456;13.634;2022-12-16T19:16:37;38.70;;;23.27;;
25155;SDS011;21913;52.456;13.634;2022-12-16T19:21:38;41.88;;;23.90;;
25155;SDS011;21913;52.456;13.634;2022-12-16T19:26:40;41.20;;;23.60;;
25155;SDS011;21913;52.456;13.634;2022-12-16T19:31:41;40.75;;;23.33;;
25155;SDS011;21913;52.456;13.634;2022-12-16T19:36:43;40.05;;;24.10;;
25155;SDS011;21913;52.456;13.634;2022-12-16T19:41:47;40.20;;;23.60;;
25155;SDS011;21913;52.456;13.634;2022-12-16T19:46:48;45.65;;;24.05;;
25155;SDS011;21913;52.456;13.634;2022-12-16T19:51:49;42.67;;;23.52;;
25155;SDS011;21913;52.456;13.634;2022-12-16T19:56:51;42.05;;;23.08;;
25155;SDS011;21913;52.456;13.634;2022-12-16T20:01:52;40.90;;;24.35;;
25155;SDS011;21913;52.456;13.634;2022-12-16T20:06:54;41.50;;;23.25;;
25155;SDS011;21913;52.456;13.634;2022-12-16T20:11:55;43.22;;;24.30;;
25155;SDS011;21913;52.456;13.634;2022-12-16T20:16:57;40.28;;;23.52;;
25155;SDS011;21913;52.456;13.634;2022-12-16T20:21:59;42.53;;;23.55;;
25155;SDS011;21913;52.456;13.634;2022-12-16T20:27:05;41.63;;;23.42;;
25155;SDS011;21913;52.456;13.634;2022-12-16T20:32:06;39.92;;;23.27;;
25155;SDS011;21913;52.456;13.634;2022-12-16T20:37:08;40.60;;;23.95;;
25155;SDS011;21913;52.456;13.634;2022-12-16T20:42:09;40.55;;;23.35;;
25155;SDS011;21913;52.456;13.634;2022-12-16T20:47:11;38.85;;;23.13;;
25155;SDS011;21913;52.456;13.634;2022-12-16T20:52:12;40.15;;;23.35;;
25155;SDS011;21913;52.456;13.634;2022-12-16T20:57:14;41.45;;;23.45;;
25155;SDS011;21913;52.456;13.634;2022-12-16T21:02:15;39.90;;;23.90;;
25155;SDS011;21913;52.456;13.634;2022-12-16T21:07:26;36.45;;;22.75;;
25155;SDS011;21913;52.456;13.634;2022-12-16T21:12:27;40.33;;;23.67;;
25155;SDS011;21913;52.456;13.634;2022-12-16T21:17:29;40.25;;;23.63;;
25155;SDS011;21913;52.456;13.634;2022-12-16T21:22:30;39.55;;;23.25;;
25155;SDS011;21913;52.456;13.634;2022-12-16T21:27:32;42.92;;;23.85;;
25155;SDS011;21913;52.456;13.634;2022-12-16T21:32:33;45.17;;;24.85;;
25155;SDS011;21913;52.456;13.634;2022-12-16T21:37:36;41.92;;;23.70;;
25155;SDS011;21913;52.456;13.634;2022-12-16T21:42:38;40.38;;;23.50;;
25155;SDS011;21913;52.456;13.634;2022-12-16T21:47:41;45.28;;;23.80;;
25155;SDS011;21913;52.456;13.634;2022-12-16T21:52:45;40.70;;;23.65;;
25155;SDS011;21913;52.456;13.634;2022-12-16T21:57:47;37.70;;;22.10;;
25155;SDS011;21913;52.456;13.634;2022-12-16T22:02:49;39.08;;;23.02;;
25155;SDS011;21913;52.456;13.634;2022-12-16T22:07:50;37.65;;;22.35;;
25155;SDS011;21913;52.456;13.634;2022-12-16T22:12:52;38.25;;;22.52;;
25155;SDS011;21913;52.456;13.634;2022-12-16T22:17:54;40.42;;;22.50;;
25155;SDS011;21913;52.456;13.634;2022-12-16T22:22:58;41.75;;;23.15;;
25155;SDS011;21913;52.456;13.634;2022-12-16T22:27:59;41.05;;;22.65;;
25155;SDS011;21913;52.456;13.634;2022-12-16T22:33:01;32.70;;;21.17;;
25155;SDS011;21913;52.456;13.634;2022-12-16T22:38:03;35.53;;;21.27;;
25155;SDS011;21913;52.456;13.634;2022-12-16T22:43:05;38.03;;;21.50;;
25155;SDS011;21913;52.456;13.634;2022-12-16T22:48:06;35.80;;;21.92;;
25155;SDS011;21913;52.456;13.634;2022-12-16T22:53:08;36.28;;;20.75;;
25155;SDS011;21913;52.456;13.634;2022-12-16T22:58:10;38.67;;;21.52;;
25155;SDS011;21913;52.456;13.634;2022-12-16T23:03:15;35.25;;;20.50;;
25155;SDS011;21913;52.456;13.634;2022-12-16T23:08:18;34.38;;;20.45;;
25155;SDS011;21913;52.456;13.634;2022-12-16T23:13:19;34.63;;;19.88;;
25155;SDS011;21913;52.456;13.634;2022-12-16T23:18:21;34.60;;;20.55;;
25155;SDS011;21913;52.456;13.634;2022-12-16T23:23:22;33.67;;;20.63;;
25155;SDS011;21913;52.456;13.634;2022-12-16T23:28:24;32.47;;;19.92;;
25155;SDS011;21913;52.456;13.634;2022-12-16T23:33:26;36.50;;;20.10;;
25155;SDS011;21913;52.456;13.634;2022-12-16T23:38:27;32.95;;;19.33;;
25155;SDS011;21913;52.456;13.634;2022-12-16T23:43:29;35.22;;;20.02;;
25155;SDS011;21913;52.456;13.634;2022-12-16T23:48:30;36.35;;;19.85;;
25155;SDS011;21913;52.456;13.634;2022-12-16T23:53:32;32.85;;;19.75;;
25155;SDS011;21913;52.456;13.634;2022-12-16T23:58:33;31.65;;;18.83;;
